sensor_id;sensor_type;location;lat;lon;timestamp;P1;durP1;ratioP1;P2;durP2;ratioP2
44270;SDS011;29963;44.594;11.368;2023-04-23T00:02:02;8.60;;;7.65;;
44270;SDS011;29963;44.594;11.368;2023-04-23T00:04:30;7.95;;;7.10;;
44270;SDS011;29963;44.594;11.368;2023-04-23T00:07:01;10.23;;;7.47;;
44270;SDS011;29963;44.594;11.368;2023-04-23T00:09:29;8.82;;;8.02;;
44270;SDS011;29963;44.594;11.368;2023-04-23T00:11:56;8.25;;;7.28;;
44270;SDS011;29963;44.594;11.368;2023-04-23T00:14:23;8.45;;;7.68;;
44270;SDS011;29963;44.594;11.368;2023-04-23T00:16:49;24.05;;;13.02;;
44270;SDS011;29963;44.594;11.368;2023-04-23T00:19:16;11.57;;;8.82;;
44270;SDS011;29963;44.594;11.368;2023-04-23T00:21:41;9.18;;;7.70;;
44270;SDS011;29963;44.594;11.368;2023-04-23T00:24:07;9.15;;;7.72;;
44270;SDS011;29963;44.594;11.368;2023-04-23T00:26:32;9.75;;;8.00;;
44270;SDS011;29963;44.594;11.368;2023-04-23T00:28:58;8.82;;;6.78;;
44270;SDS011;29963;44.594;11.368;2023-04-23T00:31:24;9.75;;;8.25;;
44270;SDS011;29963;44.594;11.368;2023-04-23T00:33:51;13.00;;;10.18;;
44270;SDS011;29963;44.594;11.368;2023-04-23T00:36:17;14.77;;;10.70;;
44270;SDS011;29963;44.594;11.368;2023-04-23T00:38:42;9.18;;;7.90;;
44270;SDS011;29963;44.594;11.368;2023-04-23T00:41:08;10.25;;;8.00;;
44270;SDS011;29963;44.594;11.368;2023-04-23T00:43:34;10.00;;;8.40;;
44270;SDS011;29963;44.594;11.368;2023-04-23T00:46:00;11.85;;;7.57;;
44270;SDS011;29963;44.594;11.368;2023-04-23T00:48:26;9.43;;;8.43;;
44270;SDS011;29963;44.594;11.368;2023-04-23T00:50:57;10.82;;;8.75;;
44270;SDS011;29963;44.594;11.368;2023-04-23T00:53:32;9.88;;;8.77;;
44270;SDS011;29963;44.594;11.368;2023-04-23T00:55:58;12.75;;;10.25;;
44270;SDS011;29963;44.594;11.368;2023-04-23T00:58:26;13.70;;;12.07;;
44270;SDS011;29963;44.594;11.368;2023-04-23T01:00:52;13.07;;;11.77;;
44270;SDS011;29963;44.594;11.368;2023-04-23T01:03:18;12.25;;;10.52;;
44270;SDS011;29963;44.594;11.368;2023-04-23T01:05:46;13.60;;;12.30;;
44270;SDS011;29963;44.594;11.368;2023-04-23T01:08:13;13.82;;;12.27;;
44270;SDS011;29963;44.594;11.368;2023-04-23T01:10:41;14.70;;;13.20;;
44270;SDS011;29963;44.594;11.368;2023-04-23T01:13:14;14.73;;;13.32;;
44270;SDS011;29963;44.594;11.368;2023-04-23T01:15:40;15.38;;;13.75;;
44270;SDS011;29963;44.594;11.368;2023-04-23T01:18:06;15.07;;;13.57;;
44270;SDS011;29963;44.594;11.368;2023-04-23T01:20:32;16.27;;;14.50;;
44270;SDS011;29963;44.594;11.368;2023-04-23T01:23:00;15.88;;;14.25;;
44270;SDS011;29963;44.594;11.368;2023-04-23T01:25:29;15.75;;;13.63;;
44270;SDS011;29963;44.594;11.368;2023-04-23T01:27:55;16.38;;;14.25;;
44270;SDS011;29963;44.594;11.368;2023-04-23T01:30:23;15.95;;;14.02;;
44270;SDS011;29963;44.594;11.368;2023-04-23T01:32:51;16.10;;;13.65;;
44270;SDS011;29963;44.594;11.368;2023-04-23T01:35:18;16.15;;;14.50;;
44270;SDS011;29963;44.594;11.368;2023-04-23T01:37:44;20.33;;;16.33;;
44270;SDS011;29963;44.594;11.368;2023-04-23T01:40:11;17.00;;;15.07;;
44270;SDS011;29963;44.594;11.368;2023-04-23T01:42:37;18.20;;;16.30;;
44270;SDS011;29963;44.594;11.368;2023-04-23T01:45:03;17.48;;;15.43;;
44270;SDS011;29963;44.594;11.368;2023-04-23T01:47:31;17.55;;;15.75;;
44270;SDS011;29963;44.594;11.368;2023-04-23T01:49:58;18.05;;;15.93;;
44270;SDS011;29963;44.594;11.368;2023-04-23T01:52:24;25.20;;;18.95;;
44270;SDS011;29963;44.594;11.368;2023-04-23T01:54:50;25.55;;;17.88;;
44270;SDS011;29963;44.594;11.368;2023-04-23T01:57:16;18.42;;;16.58;;
44270;SDS011;29963;44.594;11.368;2023-04-23T01:59:48;17.23;;;15.40;;
44270;SDS011;29963;44.594;11.368;2023-04-23T02:02:14;18.13;;;16.25;;
44270;SDS011;29963;44.594;11.368;2023-04-23T02:04:41;27.55;;;18.45;;
44270;SDS011;29963;44.594;11.368;2023-04-23T02:07:09;22.90;;;18.83;;
44270;SDS011;29963;44.594;11.368;2023-04-23T02:09:35;21.25;;;18.02;;
44270;SDS011;29963;44.594;11.368;2023-04-23T02:12:01;20.45;;;17.70;;
44270;SDS011;29963;44.594;11.368;2023-04-23T02:14:27;25.05;;;19.27;;
44270;SDS011;29963;44.594;11.368;2023-04-23T02:16:53;22.17;;;17.75;;
44270;SDS011;29963;44.594;11.368;2023-04-23T02:19:19;19.63;;;17.52;;
44270;SDS011;29963;44.594;11.368;2023-04-23T02:21:45;18.42;;;16.52;;
44270;SDS011;29963;44.594;11.368;2023-04-23T02:24:11;19.33;;;17.30;;
44270;SDS011;29963;44.594;11.368;2023-04-23T02:26:37;19.13;;;17.05;;
44270;SDS011;29963;44.594;11.368;2023-04-23T02:29:02;19.08;;;17.17;;
44270;SDS011;29963;44.594;11.368;2023-04-23T02:31:28;21.33;;;16.60;;
44270;SDS011;29963;44.594;11.368;2023-04-23T02:33:54;20.25;;;18.25;;
44270;SDS011;29963;44.594;11.368;2023-04-23T02:36:20;20.00;;;17.90;;
44270;SDS011;29963;44.594;11.368;2023-04-23T02:38:45;20.38;;;18.27;;
44270;SDS011;29963;44.594;11.368;2023-04-23T02:41:13;20.50;;;16.63;;
44270;SDS011;29963;44.594;11.368;2023-04-23T02:43:39;20.42;;;17.75;;
44270;SDS011;29963;44.594;11.368;2023-04-23T02:46:04;18.92;;;17.02;;
44270;SDS011;29963;44.594;11.368;2023-04-23T02:48:34;20.65;;;18.55;;
44270;SDS011;29963;44.594;11.368;2023-04-23T02:51:04;20.52;;;17.63;;
44270;SDS011;29963;44.594;11.368;2023-04-23T02:53:31;20.55;;;18.42;;
44270;SDS011;29963;44.594;11.368;2023-04-23T02:55:57;20.52;;;18.42;;
44270;SDS011;29963;44.594;11.368;2023-04-23T02:58:22;21.92;;;16.35;;
44270;SDS011;29963;44.594;11.368;2023-04-23T03:00:48;19.08;;;16.67;;
44270;SDS011;29963;44.594;11.368;2023-04-23T03:03:14;19.00;;;16.85;;
44270;SDS011;29963;44.594;11.368;2023-04-23T03:05:40;19.67;;;17.75;;
44270;SDS011;29963;44.594;11.368;2023-04-23T03:08:06;18.50;;;16.63;;
44270;SDS011;29963;44.594;11.368;2023-04-23T03:10:31;16.73;;;14.98;;
44270;SDS011;29963;44.594;11.368;2023-04-23T03:12:57;20.77;;;18.65;;
44270;SDS011;29963;44.594;11.368;2023-04-23T03:15:22;18.48;;;16.63;;
44270;SDS011;29963;44.594;11.368;2023-04-23T03:17:49;19.77;;;17.73;;
44270;SDS011;29963;44.594;11.368;2023-04-23T03:20:16;20.10;;;17.48;;
44270;SDS011;29963;44.594;11.368;2023-04-23T03:22:42;19.83;;;17.73;;
44270;SDS011;29963;44.594;11.368;2023-04-23T03:25:08;23.23;;;19.25;;
44270;SDS011;29963;44.594;11.368;2023-04-23T03:27:34;20.45;;;18.35;;
44270;SDS011;29963;44.594;11.368;2023-04-23T03:29:59;19.77;;;17.67;;
44270;SDS011;29963;44.594;11.368;2023-04-23T03:32:25;22.30;;;19.10;;
44270;SDS011;29963;44.594;11.368;2023-04-23T03:34:51;21.95;;;18.77;;
44270;SDS011;29963;44.594;11.368;2023-04-23T03:37:16;20.77;;;18.55;;
44270;SDS011;29963;44.594;11.368;2023-04-23T03:39:42;22.30;;;18.17;;
44270;SDS011;29963;44.594;11.368;2023-04-23T03:42:08;21.60;;;17.17;;
44270;SDS011;29963;44.594;11.368;2023-04-23T03:44:33;19.65;;;17.58;;
44270;SDS011;29963;44.594;11.368;2023-04-23T03:46:59;22.20;;;18.73;;
44270;SDS011;29963;44.594;11.368;2023-04-23T03:49:25;22.70;;;18.23;;
44270;SDS011;29963;44.594;11.368;2023-04-23T03:51:51;22.75;;;18.63;;
44270;SDS011;29963;44.594;11.368;2023-04-23T03:54:16;22.33;;;19.23;;
44270;SDS011;29963;44.594;11.368;2023-04-23T03:56:43;27.25;;;20.05;;
44270;SDS011;29963;44.594;11.368;2023-04-23T03:59:09;26.88;;;20.13;;
44270;SDS011;29963;44.594;11.368;2023-04-23T04:01:35;22.50;;;20.10;;
44270;SDS011;29963;44.594;11.368;2023-04-23T04:04:01;22.55;;;20.25;;
44270;SDS011;29963;44.594;11.368;2023-04-23T04:06:27;21.63;;;19.17;;
44270;SDS011;29963;44.594;11.368;2023-04-23T04:08:52;21.27;;;19.02;;
44270;SDS011;29963;44.594;11.368;2023-04-23T04:11:18;20.63;;;18.42;;
44270;SDS011;29963;44.594;11.368;2023-04-23T04:13:44;24.05;;;20.52;;
44270;SDS011;29963;44.594;11.368;2023-04-23T04:16:10;49.53;;;30.48;;
44270;SDS011;29963;44.594;11.368;2023-04-23T04:18:36;59.38;;;32.28;;
44270;SDS011;29963;44.594;11.368;2023-04-23T04:21:03;50.47;;;32.20;;
44270;SDS011;29963;44.594;11.368;2023-04-23T04:23:28;40.55;;;28.88;;
44270;SDS011;29963;44.594;11.368;2023-04-23T04:25:55;28.73;;;22.50;;
44270;SDS011;29963;44.594;11.368;2023-04-23T04:28:21;22.02;;;17.83;;
44270;SDS011;29963;44.594;11.368;2023-04-23T04:30:49;21.52;;;18.88;;
44270;SDS011;29963;44.594;11.368;2023-04-23T04:33:17;19.85;;;17.58;;
44270;SDS011;29963;44.594;11.368;2023-04-23T04:35:44;23.20;;;17.85;;
44270;SDS011;29963;44.594;11.368;2023-04-23T04:38:11;23.15;;;17.67;;
44270;SDS011;29963;44.594;11.368;2023-04-23T04:40:37;21.02;;;17.40;;
44270;SDS011;29963;44.594;11.368;2023-04-23T04:43:03;22.50;;;17.67;;
44270;SDS011;29963;44.594;11.368;2023-04-23T04:45:29;20.00;;;17.90;;
44270;SDS011;29963;44.594;11.368;2023-04-23T04:47:55;20.85;;;17.23;;
44270;SDS011;29963;44.594;11.368;2023-04-23T04:50:20;19.90;;;17.90;;
44270;SDS011;29963;44.594;11.368;2023-04-23T04:52:46;19.13;;;17.02;;
44270;SDS011;29963;44.594;11.368;2023-04-23T04:55:12;19.45;;;17.45;;
44270;SDS011;29963;44.594;11.368;2023-04-23T04:57:37;21.73;;;19.35;;
44270;SDS011;29963;44.594;11.368;2023-04-23T05:00:17;22.27;;;17.35;;
44270;SDS011;29963;44.594;11.368;2023-04-23T05:02:50;20.60;;;18.25;;
44270;SDS011;29963;44.594;11.368;2023-04-23T05:05:17;20.58;;;18.48;;
44270;SDS011;29963;44.594;11.368;2023-04-23T05:07:44;18.33;;;16.38;;
44270;SDS011;29963;44.594;11.368;2023-04-23T05:10:09;18.20;;;16.40;;
44270;SDS011;29963;44.594;11.368;2023-04-23T05:12:35;21.45;;;17.17;;
44270;SDS011;29963;44.594;11.368;2023-04-23T05:15:05;18.20;;;16.27;;
44270;SDS011;29963;44.594;11.368;2023-04-23T05:17:32;23.73;;;16.42;;
44270;SDS011;29963;44.594;11.368;2023-04-23T05:19:57;20.75;;;16.83;;
44270;SDS011;29963;44.594;11.368;2023-04-23T05:22:23;17.27;;;15.48;;
44270;SDS011;29963;44.594;11.368;2023-04-23T05:24:48;18.58;;;15.02;;
44270;SDS011;29963;44.594;11.368;2023-04-23T05:27:14;16.88;;;14.95;;
44270;SDS011;29963;44.594;11.368;2023-04-23T05:29:40;16.33;;;14.25;;
44270;SDS011;29963;44.594;11.368;2023-04-23T05:32:05;16.65;;;14.90;;
44270;SDS011;29963;44.594;11.368;2023-04-23T05:34:31;18.42;;;16.63;;
44270;SDS011;29963;44.594;11.368;2023-04-23T05:36:56;16.52;;;14.60;;
44270;SDS011;29963;44.594;11.368;2023-04-23T05:39:22;15.38;;;13.77;;
44270;SDS011;29963;44.594;11.368;2023-04-23T05:41:48;14.32;;;12.80;;
44270;SDS011;29963;44.594;11.368;2023-04-23T05:44:13;20.80;;;13.35;;
44270;SDS011;29963;44.594;11.368;2023-04-23T05:46:39;12.80;;;11.43;;
44270;SDS011;29963;44.594;11.368;2023-04-23T05:49:05;12.38;;;11.07;;
44270;SDS011;29963;44.594;11.368;2023-04-23T05:51:30;12.27;;;11.00;;
44270;SDS011;29963;44.594;11.368;2023-04-23T05:53:56;12.52;;;10.85;;
44270;SDS011;29963;44.594;11.368;2023-04-23T05:56:22;13.35;;;11.07;;
44270;SDS011;29963;44.594;11.368;2023-04-23T05:58:47;11.25;;;9.48;;
44270;SDS011;29963;44.594;11.368;2023-04-23T06:01:13;10.10;;;9.13;;
44270;SDS011;29963;44.594;11.368;2023-04-23T06:03:39;11.60;;;8.20;;
44270;SDS011;29963;44.594;11.368;2023-04-23T06:06:09;11.40;;;9.73;;
44270;SDS011;29963;44.594;11.368;2023-04-23T06:08:36;8.68;;;7.78;;
44270;SDS011;29963;44.594;11.368;2023-04-23T06:11:01;9.48;;;7.97;;
44270;SDS011;29963;44.594;11.368;2023-04-23T06:13:27;9.10;;;7.90;;
44270;SDS011;29963;44.594;11.368;2023-04-23T06:15:54;9.00;;;7.60;;
44270;SDS011;29963;44.594;11.368;2023-04-23T06:18:20;9.48;;;8.65;;
44270;SDS011;29963;44.594;11.368;2023-04-23T06:20:46;7.47;;;6.78;;
44270;SDS011;29963;44.594;11.368;2023-04-23T06:23:13;10.07;;;7.70;;
44270;SDS011;29963;44.594;11.368;2023-04-23T06:25:39;8.10;;;7.40;;
44270;SDS011;29963;44.594;11.368;2023-04-23T06:28:04;10.68;;;7.55;;
44270;SDS011;29963;44.594;11.368;2023-04-23T06:30:30;9.32;;;7.80;;
44270;SDS011;29963;44.594;11.368;2023-04-23T06:32:56;9.40;;;8.43;;
44270;SDS011;29963;44.594;11.368;2023-04-23T06:35:21;10.48;;;7.38;;
44270;SDS011;29963;44.594;11.368;2023-04-23T06:37:47;10.05;;;7.47;;
44270;SDS011;29963;44.594;11.368;2023-04-23T06:40:13;9.13;;;8.25;;
44270;SDS011;29963;44.594;11.368;2023-04-23T06:42:39;11.88;;;7.68;;
44270;SDS011;29963;44.594;11.368;2023-04-23T06:45:05;8.88;;;7.72;;
44270;SDS011;29963;44.594;11.368;2023-04-23T06:47:31;10.15;;;8.75;;
44270;SDS011;29963;44.594;11.368;2023-04-23T06:49:57;8.10;;;7.35;;
44270;SDS011;29963;44.594;11.368;2023-04-23T06:52:24;10.48;;;8.77;;
44270;SDS011;29963;44.594;11.368;2023-04-23T06:54:50;9.55;;;8.65;;
44270;SDS011;29963;44.594;11.368;2023-04-23T06:57:16;9.57;;;8.57;;
44270;SDS011;29963;44.594;11.368;2023-04-23T06:59:41;11.25;;;9.43;;
44270;SDS011;29963;44.594;11.368;2023-04-23T07:02:07;9.27;;;8.20;;
44270;SDS011;29963;44.594;11.368;2023-04-23T07:04:33;9.30;;;8.30;;
44270;SDS011;29963;44.594;11.368;2023-04-23T07:06:58;11.48;;;8.82;;
44270;SDS011;29963;44.594;11.368;2023-04-23T07:09:25;10.05;;;9.05;;
44270;SDS011;29963;44.594;11.368;2023-04-23T07:11:51;11.20;;;9.63;;
44270;SDS011;29963;44.594;11.368;2023-04-23T07:14:17;10.90;;;9.50;;
44270;SDS011;29963;44.594;11.368;2023-04-23T07:16:43;11.07;;;9.13;;
44270;SDS011;29963;44.594;11.368;2023-04-23T07:19:08;13.45;;;9.32;;
44270;SDS011;29963;44.594;11.368;2023-04-23T07:21:34;10.23;;;9.23;;
44270;SDS011;29963;44.594;11.368;2023-04-23T07:23:59;10.75;;;9.32;;
44270;SDS011;29963;44.594;11.368;2023-04-23T07:26:30;10.13;;;9.13;;
44270;SDS011;29963;44.594;11.368;2023-04-23T07:28:56;9.45;;;8.55;;
44270;SDS011;29963;44.594;11.368;2023-04-23T07:31:22;11.93;;;9.02;;
44270;SDS011;29963;44.594;11.368;2023-04-23T07:33:48;11.77;;;10.52;;
44270;SDS011;29963;44.594;11.368;2023-04-23T07:36:14;12.73;;;11.35;;
44270;SDS011;29963;44.594;11.368;2023-04-23T07:38:40;12.90;;;11.05;;
44270;SDS011;29963;44.594;11.368;2023-04-23T07:41:05;11.68;;;10.48;;
44270;SDS011;29963;44.594;11.368;2023-04-23T07:43:31;13.18;;;11.27;;
44270;SDS011;29963;44.594;11.368;2023-04-23T07:45:57;15.25;;;13.20;;
44270;SDS011;29963;44.594;11.368;2023-04-23T07:48:22;14.30;;;12.80;;
44270;SDS011;29963;44.594;11.368;2023-04-23T07:50:48;14.48;;;12.95;;
44270;SDS011;29963;44.594;11.368;2023-04-23T07:53:13;13.50;;;11.85;;
44270;SDS011;29963;44.594;11.368;2023-04-23T07:55:39;14.25;;;12.75;;
44270;SDS011;29963;44.594;11.368;2023-04-23T07:58:05;14.50;;;13.00;;
44270;SDS011;29963;44.594;11.368;2023-04-23T08:00:31;15.45;;;13.35;;
44270;SDS011;29963;44.594;11.368;2023-04-23T08:02:57;16.25;;;12.85;;
44270;SDS011;29963;44.594;11.368;2023-04-23T08:05:22;15.13;;;13.57;;
44270;SDS011;29963;44.594;11.368;2023-04-23T08:07:48;14.88;;;13.30;;
44270;SDS011;29963;44.594;11.368;2023-04-23T08:10:14;14.95;;;13.38;;
44270;SDS011;29963;44.594;11.368;2023-04-23T08:12:40;12.75;;;11.18;;
44270;SDS011;29963;44.594;11.368;2023-04-23T08:15:06;13.85;;;12.45;;
44270;SDS011;29963;44.594;11.368;2023-04-23T08:17:32;14.85;;;13.20;;
44270;SDS011;29963;44.594;11.368;2023-04-23T08:19:57;13.57;;;12.07;;
44270;SDS011;29963;44.594;11.368;2023-04-23T08:22:23;12.55;;;10.90;;
44270;SDS011;29963;44.594;11.368;2023-04-23T08:24:49;14.80;;;13.18;;
44270;SDS011;29963;44.594;11.368;2023-04-23T08:27:14;14.57;;;12.18;;
44270;SDS011;29963;44.594;11.368;2023-04-23T08:29:58;14.05;;;12.18;;
44270;SDS011;29963;44.594;11.368;2023-04-23T08:32:24;11.35;;;10.18;;
44270;SDS011;29963;44.594;11.368;2023-04-23T08:34:50;11.88;;;9.73;;
44270;SDS011;29963;44.594;11.368;2023-04-23T08:37:15;13.90;;;10.88;;
44270;SDS011;29963;44.594;11.368;2023-04-23T08:43:00;17.38;;;10.63;;
44270;SDS011;29963;44.594;11.368;2023-04-23T08:45:21;12.07;;;10.68;;
44270;SDS011;29963;44.594;11.368;2023-04-23T08:47:47;11.75;;;10.10;;
44270;SDS011;29963;44.594;11.368;2023-04-23T08:50:14;14.20;;;11.57;;
44270;SDS011;29963;44.594;11.368;2023-04-23T08:52:54;12.57;;;11.20;;
44270;SDS011;29963;44.594;11.368;2023-04-23T08:55:22;11.88;;;10.68;;
44270;SDS011;29963;44.594;11.368;2023-04-23T08:57:48;10.98;;;9.88;;
44270;SDS011;29963;44.594;11.368;2023-04-23T09:00:15;13.93;;;11.90;;
44270;SDS011;29963;44.594;11.368;2023-04-23T09:02:43;11.20;;;9.65;;
44270;SDS011;29963;44.594;11.368;2023-04-23T09:05:10;12.45;;;9.50;;
44270;SDS011;29963;44.594;11.368;2023-04-23T09:07:37;12.07;;;9.40;;
44270;SDS011;29963;44.594;11.368;2023-04-23T09:10:03;12.02;;;9.00;;
44270;SDS011;29963;44.594;11.368;2023-04-23T09:12:31;10.80;;;9.18;;
44270;SDS011;29963;44.594;11.368;2023-04-23T09:15:00;9.13;;;7.82;;
44270;SDS011;29963;44.594;11.368;2023-04-23T09:17:27;12.15;;;10.07;;
44270;SDS011;29963;44.594;11.368;2023-04-23T09:19:54;10.65;;;8.18;;
44270;SDS011;29963;44.594;11.368;2023-04-23T09:25:08;7.20;;;6.47;;
44270;SDS011;29963;44.594;11.368;2023-04-23T09:27:34;7.78;;;6.50;;
44270;SDS011;29963;44.594;11.368;2023-04-23T09:30:04;7.68;;;6.88;;
44270;SDS011;29963;44.594;11.368;2023-04-23T09:32:50;9.63;;;7.57;;
44270;SDS011;29963;44.594;11.368;2023-04-23T09:35:16;7.65;;;6.07;;
44270;SDS011;29963;44.594;11.368;2023-04-23T09:37:49;8.10;;;6.38;;
44270;SDS011;29963;44.594;11.368;2023-04-23T09:40:17;9.30;;;6.72;;
44270;SDS011;29963;44.594;11.368;2023-04-23T09:42:48;11.55;;;8.70;;
44270;SDS011;29963;44.594;11.368;2023-04-23T09:45:15;10.57;;;7.68;;
44270;SDS011;29963;44.594;11.368;2023-04-23T09:47:47;8.77;;;7.22;;
44270;SDS011;29963;44.594;11.368;2023-04-23T09:50:15;5.35;;;4.85;;
44270;SDS011;29963;44.594;11.368;2023-04-23T09:52:41;9.15;;;7.68;;
44270;SDS011;29963;44.594;11.368;2023-04-23T09:55:07;10.25;;;8.40;;
44270;SDS011;29963;44.594;11.368;2023-04-23T09:57:36;6.93;;;5.65;;
44270;SDS011;29963;44.594;11.368;2023-04-23T10:00:14;7.63;;;6.45;;
44270;SDS011;29963;44.594;11.368;2023-04-23T10:02:45;10.48;;;7.07;;
44270;SDS011;29963;44.594;11.368;2023-04-23T10:07:45;7.95;;;5.80;;
44270;SDS011;29963;44.594;11.368;2023-04-23T10:10:13;11.85;;;8.40;;
44270;SDS011;29963;44.594;11.368;2023-04-23T10:12:40;9.68;;;6.78;;
44270;SDS011;29963;44.594;11.368;2023-04-23T10:15:06;6.40;;;5.40;;
44270;SDS011;29963;44.594;11.368;2023-04-23T10:17:35;5.65;;;4.63;;
44270;SDS011;29963;44.594;11.368;2023-04-23T10:20:01;11.27;;;8.18;;
44270;SDS011;29963;44.594;11.368;2023-04-23T10:22:28;10.52;;;7.20;;
44270;SDS011;29963;44.594;11.368;2023-04-23T10:24:55;11.20;;;9.30;;
44270;SDS011;29963;44.594;11.368;2023-04-23T10:27:28;27.83;;;17.70;;
44270;SDS011;29963;44.594;11.368;2023-04-23T10:29:58;22.83;;;16.52;;
44270;SDS011;29963;44.594;11.368;2023-04-23T10:32:25;12.60;;;9.63;;
44270;SDS011;29963;44.594;11.368;2023-04-23T10:34:52;15.15;;;10.40;;
44270;SDS011;29963;44.594;11.368;2023-04-23T10:37:17;7.90;;;7.03;;
44270;SDS011;29963;44.594;11.368;2023-04-23T10:39:45;6.90;;;5.93;;
44270;SDS011;29963;44.594;11.368;2023-04-23T10:42:20;9.40;;;6.70;;
44270;SDS011;29963;44.594;11.368;2023-04-23T10:44:46;8.90;;;7.18;;
44270;SDS011;29963;44.594;11.368;2023-04-23T10:47:15;5.38;;;4.88;;
44270;SDS011;29963;44.594;11.368;2023-04-23T10:49:42;24.15;;;18.42;;
44270;SDS011;29963;44.594;11.368;2023-04-23T10:54:34;21.25;;;15.43;;
44270;SDS011;29963;44.594;11.368;2023-04-23T10:57:01;27.52;;;13.10;;
44270;SDS011;29963;44.594;11.368;2023-04-23T10:59:29;13.05;;;9.68;;
44270;SDS011;29963;44.594;11.368;2023-04-23T11:01:57;11.45;;;10.25;;
44270;SDS011;29963;44.594;11.368;2023-04-23T11:04:26;25.10;;;15.38;;
44270;SDS011;29963;44.594;11.368;2023-04-23T11:06:56;17.65;;;12.23;;
44270;SDS011;29963;44.594;11.368;2023-04-23T11:09:30;13.38;;;8.57;;
44270;SDS011;29963;44.594;11.368;2023-04-23T11:12:04;14.63;;;9.63;;
44270;SDS011;29963;44.594;11.368;2023-04-23T11:14:41;15.98;;;13.30;;
44270;SDS011;29963;44.594;11.368;2023-04-23T11:17:12;9.82;;;7.50;;
44270;SDS011;29963;44.594;11.368;2023-04-23T11:19:40;6.85;;;6.15;;
44270;SDS011;29963;44.594;11.368;2023-04-23T11:24:41;24.17;;;20.25;;
44270;SDS011;29963;44.594;11.368;2023-04-23T11:29:37;11.77;;;7.18;;
44270;SDS011;29963;44.594;11.368;2023-04-23T11:32:05;8.75;;;7.85;;
44270;SDS011;29963;44.594;11.368;2023-04-23T11:34:40;7.90;;;6.40;;
44270;SDS011;29963;44.594;11.368;2023-04-23T11:37:10;7.22;;;6.40;;
44270;SDS011;29963;44.594;11.368;2023-04-23T11:39:37;8.25;;;7.30;;
44270;SDS011;29963;44.594;11.368;2023-04-23T11:42:09;7.13;;;6.40;;
44270;SDS011;29963;44.594;11.368;2023-04-23T11:44:36;6.82;;;5.53;;
44270;SDS011;29963;44.594;11.368;2023-04-23T11:47:05;4.97;;;4.20;;
44270;SDS011;29963;44.594;11.368;2023-04-23T11:49:36;4.15;;;3.58;;
44270;SDS011;29963;44.594;11.368;2023-04-23T11:52:06;8.50;;;4.18;;
44270;SDS011;29963;44.594;11.368;2023-04-23T11:54:33;4.57;;;4.18;;
44270;SDS011;29963;44.594;11.368;2023-04-23T11:56:58;5.38;;;4.07;;
44270;SDS011;29963;44.594;11.368;2023-04-23T11:59:25;7.28;;;3.55;;
44270;SDS011;29963;44.594;11.368;2023-04-23T12:01:53;6.70;;;4.30;;
44270;SDS011;29963;44.594;11.368;2023-04-23T12:04:23;6.13;;;3.45;;
44270;SDS011;29963;44.594;11.368;2023-04-23T12:06:54;8.63;;;6.75;;
44270;SDS011;29963;44.594;11.368;2023-04-23T12:09:22;5.38;;;4.30;;
44270;SDS011;29963;44.594;11.368;2023-04-23T12:11:49;5.38;;;4.13;;
44270;SDS011;29963;44.594;11.368;2023-04-23T12:14:15;7.03;;;5.53;;
44270;SDS011;29963;44.594;11.368;2023-04-23T12:16:42;5.45;;;4.22;;
44270;SDS011;29963;44.594;11.368;2023-04-23T12:19:13;6.68;;;5.28;;
44270;SDS011;29963;44.594;11.368;2023-04-23T12:21:47;5.63;;;5.03;;
44270;SDS011;29963;44.594;11.368;2023-04-23T12:24:28;6.88;;;5.10;;
44270;SDS011;29963;44.594;11.368;2023-04-23T12:27:12;5.35;;;4.85;;
44270;SDS011;29963;44.594;11.368;2023-04-23T12:29:39;7.38;;;5.30;;
44270;SDS011;29963;44.594;11.368;2023-04-23T12:32:08;6.20;;;4.88;;
44270;SDS011;29963;44.594;11.368;2023-04-23T12:34:35;6.10;;;5.07;;
44270;SDS011;29963;44.594;11.368;2023-04-23T12:37:04;6.68;;;5.18;;
44270;SDS011;29963;44.594;11.368;2023-04-23T12:39:31;6.53;;;5.82;;
44270;SDS011;29963;44.594;11.368;2023-04-23T12:41:59;9.02;;;4.85;;
44270;SDS011;29963;44.594;11.368;2023-04-23T12:44:38;5.90;;;4.72;;
44270;SDS011;29963;44.594;11.368;2023-04-23T12:47:07;7.55;;;4.60;;
44270;SDS011;29963;44.594;11.368;2023-04-23T12:49:35;5.70;;;4.63;;
44270;SDS011;29963;44.594;11.368;2023-04-23T12:52:03;10.77;;;4.93;;
44270;SDS011;29963;44.594;11.368;2023-04-23T12:54:34;4.45;;;4.05;;
44270;SDS011;29963;44.594;11.368;2023-04-23T12:57:07;5.53;;;3.72;;
44270;SDS011;29963;44.594;11.368;2023-04-23T12:59:35;5.03;;;4.28;;
44270;SDS011;29963;44.594;11.368;2023-04-23T13:02:01;4.53;;;4.07;;
44270;SDS011;29963;44.594;11.368;2023-04-23T13:04:33;5.53;;;4.25;;
44270;SDS011;29963;44.594;11.368;2023-04-23T13:06:59;8.35;;;4.30;;
44270;SDS011;29963;44.594;11.368;2023-04-23T13:09:26;3.78;;;3.40;;
44270;SDS011;29963;44.594;11.368;2023-04-23T13:11:52;4.60;;;3.28;;
44270;SDS011;29963;44.594;11.368;2023-04-23T13:14:19;4.95;;;3.40;;
44270;SDS011;29963;44.594;11.368;2023-04-23T13:16:45;4.07;;;3.05;;
44270;SDS011;29963;44.594;11.368;2023-04-23T13:19:11;4.07;;;3.22;;
44270;SDS011;29963;44.594;11.368;2023-04-23T13:21:40;5.63;;;3.70;;
44270;SDS011;29963;44.594;11.368;2023-04-23T13:24:06;4.50;;;3.70;;
44270;SDS011;29963;44.594;11.368;2023-04-23T13:26:32;3.80;;;3.35;;
44270;SDS011;29963;44.594;11.368;2023-04-23T13:28:58;4.75;;;3.22;;
44270;SDS011;29963;44.594;11.368;2023-04-23T13:31:25;5.95;;;3.40;;
44270;SDS011;29963;44.594;11.368;2023-04-23T13:33:51;5.63;;;3.03;;
44270;SDS011;29963;44.594;11.368;2023-04-23T13:36:17;6.57;;;2.30;;
44270;SDS011;29963;44.594;11.368;2023-04-23T13:38:43;7.28;;;2.55;;
44270;SDS011;29963;44.594;11.368;2023-04-23T13:41:09;3.00;;;2.35;;
44270;SDS011;29963;44.594;11.368;2023-04-23T13:43:34;8.63;;;2.35;;
44270;SDS011;29963;44.594;11.368;2023-04-23T13:46:00;4.28;;;2.35;;
44270;SDS011;29963;44.594;11.368;2023-04-23T13:48:26;2.63;;;2.10;;
44270;SDS011;29963;44.594;11.368;2023-04-23T13:50:54;2.85;;;2.00;;
44270;SDS011;29963;44.594;11.368;2023-04-23T13:53:21;3.28;;;2.40;;
44270;SDS011;29963;44.594;11.368;2023-04-23T13:55:46;2.78;;;2.17;;
44270;SDS011;29963;44.594;11.368;2023-04-23T13:58:12;4.13;;;1.63;;
44270;SDS011;29963;44.594;11.368;2023-04-23T14:00:38;2.13;;;1.88;;
44270;SDS011;29963;44.594;11.368;2023-04-23T14:03:03;3.13;;;1.85;;
44270;SDS011;29963;44.594;11.368;2023-04-23T14:05:29;1.85;;;1.70;;
44270;SDS011;29963;44.594;11.368;2023-04-23T14:07:55;2.13;;;1.70;;
44270;SDS011;29963;44.594;11.368;2023-04-23T14:10:21;2.20;;;1.65;;
44270;SDS011;29963;44.594;11.368;2023-04-23T14:12:47;3.42;;;1.80;;
44270;SDS011;29963;44.594;11.368;2023-04-23T14:15:13;4.00;;;1.90;;
44270;SDS011;29963;44.594;11.368;2023-04-23T14:17:39;4.38;;;1.75;;
44270;SDS011;29963;44.594;11.368;2023-04-23T14:20:07;3.60;;;1.58;;
44270;SDS011;29963;44.594;11.368;2023-04-23T14:22:33;2.53;;;1.65;;
44270;SDS011;29963;44.594;11.368;2023-04-23T14:25:03;2.13;;;1.60;;
44270;SDS011;29963;44.594;11.368;2023-04-23T14:27:49;5.03;;;2.58;;
44270;SDS011;29963;44.594;11.368;2023-04-23T14:30:16;3.35;;;2.95;;
44270;SDS011;29963;44.594;11.368;2023-04-23T14:32:44;4.20;;;2.50;;
44270;SDS011;29963;44.594;11.368;2023-04-23T14:35:13;4.03;;;2.47;;
44270;SDS011;29963;44.594;11.368;2023-04-23T14:37:40;4.78;;;2.88;;